createdAt,value
2023-03-08T00:00:15.617Z,44.73
2023-03-08T00:03:04.309Z,44.95
2023-03-08T00:05:53.187Z,44.45
2023-03-08T00:08:42.022Z,44.76
2023-03-08T00:11:32.415Z,44.49
2023-03-08T00:14:22.345Z,44.92
2023-03-08T00:17:12.805Z,44.53
2023-03-08T00:20:01.732Z,44.61
2023-03-08T00:22:50.381Z,44.80
2023-03-08T00:25:38.975Z,44.69
2023-03-08T00:28:29.473Z,44.47
2023-03-08T00:31:18.187Z,44.78
2023-03-08T00:34:06.979Z,45.03
2023-03-08T00:36:55.679Z,45.12
2023-03-08T00:39:44.789Z,44.98
2023-03-08T00:42:33.833Z,45.47
2023-03-08T00:45:23.830Z,45.18
2023-03-08T00:48:12.536Z,45.02
2023-03-08T00:51:01.462Z,45.02
2023-03-08T00:53:50.417Z,44.96
2023-03-08T00:56:39.042Z,45.09
2023-03-08T00:59:27.889Z,45.28
2023-03-08T01:02:17.848Z,44.90
2023-03-08T01:05:07.372Z,45.18
2023-03-08T01:07:56.079Z,44.92
2023-03-08T01:10:49.260Z,44.81
2023-03-08T01:13:37.985Z,45.12
2023-03-08T01:16:29.048Z,45.20
2023-03-08T01:19:19.164Z,44.93
2023-03-08T01:22:07.803Z,44.95
2023-03-08T01:24:56.378Z,44.70
2023-03-08T01:27:45.011Z,45.26
2023-03-08T01:30:33.598Z,45.04
2023-03-08T01:33:22.860Z,45.18
2023-03-08T01:36:15.406Z,44.91
2023-03-08T01:39:04.883Z,45.27
2023-03-08T01:41:53.855Z,45.00
2023-03-08T01:44:53.153Z,44.75
2023-03-08T01:47:41.983Z,45.08
2023-03-08T01:50:31.029Z,44.95
2023-03-08T01:53:21.260Z,45.10
2023-03-08T01:56:13.472Z,45.24
2023-03-08T01:59:02.783Z,45.35
2023-03-08T02:01:51.474Z,45.26
2023-03-08T02:04:41.319Z,44.93
2023-03-08T02:07:30.146Z,45.42
2023-03-08T02:10:20.429Z,45.00
2023-03-08T02:13:10.160Z,45.00
2023-03-08T02:16:00.265Z,44.99
2023-03-08T02:18:56.996Z,45.04
2023-03-08T02:21:45.580Z,44.83
2023-03-08T02:24:35.630Z,45.13
2023-03-08T02:27:27.406Z,45.01
2023-03-08T02:30:18.305Z,44.66
2023-03-08T02:33:06.993Z,45.04
2023-03-08T02:35:55.687Z,44.96
2023-03-08T02:38:44.291Z,45.10
2023-03-08T02:41:34.397Z,45.31
2023-03-08T02:44:22.972Z,44.94
2023-03-08T02:47:11.891Z,44.91
2023-03-08T02:50:00.481Z,44.92
2023-03-08T02:52:49.186Z,44.90
2023-03-08T02:55:38.206Z,44.86
2023-03-08T02:58:28.644Z,44.82
2023-03-08T03:01:17.339Z,45.20
2023-03-08T03:04:06.110Z,45.31
2023-03-08T03:06:54.659Z,45.48
2023-03-08T03:09:43.281Z,45.37
2023-03-08T03:12:32.177Z,45.45
2023-03-08T03:15:22.388Z,45.34
2023-03-08T03:18:11.306Z,45.60
2023-03-08T03:21:05.237Z,45.15
2023-03-08T03:23:55.716Z,45.63
2023-03-08T03:26:44.347Z,45.52
2023-03-08T03:29:33.158Z,45.39
2023-03-08T03:32:23.471Z,45.34
2023-03-08T03:35:12.094Z,45.40
2023-03-08T03:38:00.753Z,45.25
2023-03-08T03:40:49.338Z,45.51
2023-03-08T03:43:38.596Z,45.26
2023-03-08T03:46:27.407Z,45.30
2023-03-08T03:49:17.403Z,45.17
2023-03-08T03:52:06.520Z,45.28
2023-03-08T03:54:55.116Z,45.03
2023-03-08T03:57:44.738Z,45.34
2023-03-08T04:00:33.412Z,45.51
2023-03-08T04:03:22.181Z,45.30
2023-03-08T04:06:14.731Z,45.36
2023-03-08T04:09:05.579Z,45.11
2023-03-08T04:11:54.185Z,45.38
2023-03-08T04:14:42.940Z,45.07
2023-03-08T04:17:31.600Z,44.78
2023-03-08T04:20:20.304Z,45.44
2023-03-08T04:23:10.285Z,44.89
2023-03-08T04:25:59.556Z,45.44
2023-03-08T04:28:48.295Z,45.28
2023-03-08T04:31:37.254Z,45.61
2023-03-08T04:34:25.937Z,45.24
2023-03-08T04:37:14.658Z,45.45
2023-03-08T04:40:09.214Z,45.46
2023-03-08T04:42:58.125Z,45.10
2023-03-08T04:45:46.907Z,45.38
2023-03-08T04:48:36.187Z,45.37
2023-03-08T04:51:26.427Z,45.23
2023-03-08T04:54:15.120Z,45.00
2023-03-08T04:57:05.469Z,45.35
2023-03-08T04:59:54.186Z,45.42
2023-03-08T05:02:42.768Z,45.13
2023-03-08T05:05:31.626Z,45.57
2023-03-08T05:08:20.681Z,45.46
2023-03-08T05:11:09.328Z,45.68
2023-03-08T05:14:00.246Z,45.61
2023-03-08T05:16:48.892Z,45.44
2023-03-08T05:19:37.511Z,45.93
2023-03-08T05:22:26.144Z,45.90
2023-03-08T05:25:15.481Z,45.67
2023-03-08T05:28:04.145Z,45.60
2023-03-08T05:31:02.243Z,45.36
2023-03-08T05:33:52.198Z,45.67
2023-03-08T05:36:42.641Z,45.61
2023-03-08T05:39:31.673Z,45.66
2023-03-08T05:42:20.750Z,46.05
2023-03-08T05:45:10.340Z,45.77
2023-03-08T05:48:00.361Z,45.86
2023-03-08T05:50:49.195Z,46.00
2023-03-08T05:53:38.288Z,45.77
2023-03-08T05:56:27.040Z,45.77
2023-03-08T05:59:15.853Z,45.77
2023-03-08T06:02:04.632Z,45.66
2023-03-08T06:04:54.697Z,45.83
2023-03-08T06:07:44.465Z,46.14
2023-03-08T06:10:33.316Z,46.29
2023-03-08T06:13:24.620Z,46.02
2023-03-08T06:16:13.852Z,46.02
2023-03-08T06:19:03.280Z,46.70
2023-03-08T06:21:53.226Z,46.42
2023-03-08T06:24:42.370Z,46.36
2023-03-08T06:27:31.026Z,46.50
2023-03-08T06:30:20.163Z,46.39
2023-03-08T06:33:08.869Z,46.14
2023-03-08T06:35:59.221Z,46.30
2023-03-08T06:38:49.865Z,46.55
2023-03-08T06:41:38.757Z,46.53
2023-03-08T06:44:27.449Z,46.48
2023-03-08T06:47:16.056Z,46.20
2023-03-08T06:50:05.032Z,46.15
2023-03-08T06:52:53.637Z,46.11
2023-03-08T06:55:43.728Z,46.50
2023-03-08T06:58:32.781Z,46.40
2023-03-08T07:01:21.411Z,46.22
2023-03-08T07:04:15.200Z,46.41
2023-03-08T07:07:04.207Z,46.37
2023-03-08T07:09:52.840Z,46.45
2023-03-08T07:12:43.713Z,46.52
2023-03-08T07:15:32.400Z,46.51
2023-03-08T07:18:21.491Z,46.77
2023-03-08T07:21:11.027Z,46.57
2023-03-08T07:24:00.578Z,46.45
2023-03-08T07:26:49.205Z,46.58
2023-03-08T07:29:39.213Z,46.43
2023-03-08T07:32:29.049Z,46.43
2023-03-08T07:35:18.377Z,46.44
2023-03-08T07:38:07.002Z,46.32
2023-03-08T07:40:56.688Z,46.40
2023-03-08T07:43:45.293Z,46.43
2023-03-08T07:46:35.309Z,46.37
2023-03-08T07:49:23.971Z,46.21
2023-03-08T07:52:12.672Z,46.74
2023-03-08T07:55:02.704Z,46.44
2023-03-08T07:57:51.594Z,46.46
2023-03-08T08:00:40.192Z,46.50
2023-03-08T08:03:31.915Z,46.51
2023-03-08T08:06:20.671Z,46.54
2023-03-08T08:09:10.332Z,46.49
2023-03-08T08:11:58.921Z,46.74
2023-03-08T08:14:47.666Z,46.74
2023-03-08T08:17:36.413Z,46.34
2023-03-08T08:20:26.810Z,46.53
2023-03-08T08:23:15.484Z,46.77
2023-03-08T08:26:06.807Z,46.65
2023-03-08T08:28:55.911Z,46.80
2023-03-08T08:31:44.619Z,46.85
2023-03-08T08:34:33.588Z,46.69
2023-03-08T08:37:23.744Z,47.03
2023-03-08T08:40:13.679Z,47.00
2023-03-08T08:43:02.274Z,46.63
2023-03-08T08:45:55.716Z,46.65
2023-03-08T08:48:44.854Z,46.85
2023-03-08T08:51:34.182Z,46.84
2023-03-08T08:54:24.275Z,46.63
2023-03-08T08:57:12.883Z,46.82
2023-03-08T09:00:01.548Z,46.70
2023-03-08T09:02:50.222Z,46.69
2023-03-08T09:05:41.679Z,46.63
2023-03-08T09:08:30.927Z,46.32
2023-03-08T09:11:21.204Z,46.73
2023-03-08T09:14:09.852Z,46.47
2023-03-08T09:16:58.469Z,46.43
2023-03-08T09:19:47.519Z,46.15
2023-03-08T09:22:36.325Z,46.69
2023-03-08T09:25:25.385Z,45.89
2023-03-08T09:28:15.494Z,46.46
2023-03-08T09:31:12.063Z,46.73
2023-03-08T09:34:01.152Z,46.85
2023-03-08T09:36:50.164Z,46.95
2023-03-08T09:39:40.618Z,47.01
2023-03-08T09:42:31.437Z,46.56
2023-03-08T09:45:24.992Z,46.64
2023-03-08T09:48:16.544Z,46.56
2023-03-08T09:51:06.556Z,46.61
2023-03-08T09:53:58.704Z,47.02
2023-03-08T09:56:48.964Z,46.87
2023-03-08T09:59:42.202Z,47.01
2023-03-08T10:02:38.902Z,47.07
2023-03-08T10:05:31.307Z,47.17
2023-03-08T10:08:24.757Z,47.05
2023-03-08T10:11:18.193Z,47.11
2023-03-08T10:14:14.499Z,46.93
2023-03-08T10:17:06.092Z,47.12
2023-03-08T10:19:59.083Z,47.08
2023-03-08T10:22:48.744Z,47.39
2023-03-08T10:25:37.599Z,47.31
2023-03-08T10:28:27.721Z,47.16
2023-03-08T10:31:25.471Z,46.99
2023-03-08T10:34:16.949Z,47.35
2023-03-08T10:37:09.017Z,47.06
2023-03-08T10:39:59.834Z,46.99
2023-03-08T10:42:54.448Z,47.10
2023-03-08T10:45:43.373Z,47.13
2023-03-08T10:48:32.803Z,46.85
2023-03-08T10:51:23.168Z,47.13
2023-03-08T10:54:17.070Z,47.16
2023-03-08T10:57:06.154Z,47.58
2023-03-08T10:59:54.841Z,47.23
2023-03-08T11:02:43.554Z,47.51
2023-03-08T11:05:32.578Z,47.36
2023-03-08T11:08:23.100Z,47.20
2023-03-08T11:11:14.964Z,46.90
2023-03-08T11:14:04.128Z,47.09
2023-03-08T11:16:59.795Z,47.08
2023-03-08T11:20:01.102Z,46.99
2023-03-08T11:22:58.962Z,47.16
2023-03-08T11:25:49.144Z,46.94
2023-03-08T11:28:48.810Z,47.34
2023-03-08T11:31:43.587Z,46.75
2023-03-08T11:34:44.589Z,46.24
2023-03-08T11:37:38.262Z,47.26
2023-03-08T11:40:29.688Z,47.39
2023-03-08T11:43:29.754Z,47.43
2023-03-08T11:46:24.360Z,47.34
2023-03-08T11:49:26.034Z,47.20
2023-03-08T11:52:23.217Z,46.95
2023-03-08T11:55:33.860Z,47.13
2023-03-08T11:58:26.305Z,47.32
2023-03-08T12:01:18.102Z,47.36
2023-03-08T12:04:13.352Z,47.18
2023-03-08T12:07:04.089Z,47.05
2023-03-08T12:09:58.348Z,46.70
2023-03-08T12:12:50.690Z,47.21
2023-03-08T12:15:42.999Z,46.63
2023-03-08T12:18:37.379Z,46.82
2023-03-08T12:21:34.256Z,47.06
2023-03-08T12:24:29.969Z,46.96
2023-03-08T12:27:22.498Z,46.71
2023-03-08T12:30:23.889Z,46.79
2023-03-08T12:33:14.362Z,46.83
2023-03-08T12:36:04.895Z,47.13
2023-03-08T12:38:56.700Z,46.68
2023-03-08T12:41:45.371Z,46.59
2023-03-08T12:44:34.485Z,46.83
2023-03-08T12:47:24.063Z,46.86
2023-03-08T12:50:18.576Z,46.88
2023-03-08T12:53:24.159Z,47.05
2023-03-08T12:56:26.299Z,46.86
2023-03-08T12:59:33.469Z,46.98
2023-03-08T13:02:31.112Z,47.25
2023-03-08T13:05:22.656Z,47.17
2023-03-08T13:08:25.956Z,46.86
2023-03-08T13:11:16.943Z,46.57
2023-03-08T13:14:26.667Z,46.93
2023-03-08T13:17:34.943Z,46.80
2023-03-08T13:20:26.507Z,46.78
2023-03-08T13:23:24.939Z,46.40
2023-03-08T13:26:25.799Z,46.51
2023-03-08T13:29:18.214Z,46.39
2023-03-08T13:32:12.048Z,46.59
2023-03-08T13:35:01.526Z,46.73
2023-03-08T13:37:58.857Z,46.74
2023-03-08T13:40:52.906Z,46.15
2023-03-08T13:43:41.512Z,46.37
2023-03-08T13:46:31.833Z,46.14
2023-03-08T13:49:22.761Z,46.44
2023-03-08T13:52:18.011Z,46.43
2023-03-08T13:55:09.279Z,46.62
2023-03-08T13:57:58.088Z,46.22
2023-03-08T14:00:46.994Z,46.23
2023-03-08T14:03:37.204Z,46.27
2023-03-08T14:06:29.900Z,46.06
2023-03-08T14:09:19.405Z,46.32
2023-03-08T14:12:09.623Z,45.80
2023-03-08T14:15:00.824Z,45.32
2023-03-08T14:17:51.354Z,45.85
2023-03-08T14:20:41.789Z,45.96
2023-03-08T14:23:30.729Z,46.22
2023-03-08T14:26:28.095Z,45.98
2023-03-08T14:29:21.557Z,46.15
2023-03-08T14:32:31.358Z,45.96
2023-03-08T14:35:24.930Z,45.99
2023-03-08T14:38:24.717Z,45.63
2023-03-08T14:41:15.975Z,45.02
2023-03-08T14:44:05.513Z,44.61
2023-03-08T14:47:14.072Z,44.57
2023-03-08T14:50:36.857Z,44.12
2023-03-08T14:53:30.561Z,43.86
2023-03-08T14:56:22.218Z,43.77
2023-03-08T14:59:27.873Z,43.95
2023-03-08T15:02:18.204Z,43.47
2023-03-08T15:05:09.342Z,43.51
2023-03-08T15:08:00.487Z,44.51
2023-03-08T15:10:51.009Z,44.18
2023-03-08T15:13:40.082Z,43.29
2023-03-08T15:16:31.753Z,42.69
2023-03-08T15:19:20.632Z,42.17
2023-03-08T15:22:09.302Z,42.44
2023-03-08T15:24:58.165Z,42.61
2023-03-08T15:27:50.012Z,42.38
2023-03-08T15:30:38.698Z,42.38
2023-03-08T15:33:27.385Z,42.28
2023-03-08T15:36:20.622Z,42.31
2023-03-08T15:39:10.715Z,41.77
2023-03-08T15:42:00.535Z,42.28
2023-03-08T15:44:50.514Z,42.30
2023-03-08T15:47:39.432Z,42.31
2023-03-08T15:50:29.361Z,41.86
2023-03-08T15:53:29.545Z,42.24
2023-03-08T15:56:25.591Z,42.68
2023-03-08T15:59:14.242Z,42.02
2023-03-08T16:02:04.846Z,41.79
2023-03-08T16:04:55.836Z,42.46
2023-03-08T16:07:46.865Z,42.26
2023-03-08T16:10:40.606Z,42.50
2023-03-08T16:13:32.093Z,42.69
2023-03-08T16:16:27.627Z,43.08
2023-03-08T16:19:22.202Z,43.47
2023-03-08T16:22:11.365Z,43.10
2023-03-08T16:24:59.969Z,44.70
2023-03-08T16:27:52.635Z,44.88
2023-03-08T16:30:42.831Z,44.79
2023-03-08T16:33:31.625Z,45.14
2023-03-08T16:36:21.798Z,45.44
2023-03-08T16:39:10.831Z,44.86
2023-03-08T16:41:59.574Z,44.15
2023-03-08T16:44:51.653Z,44.25
2023-03-08T16:47:40.486Z,44.35
2023-03-08T16:50:29.139Z,44.00
2023-03-08T16:53:21.193Z,44.08
2023-03-08T16:56:10.692Z,44.11
2023-03-08T16:59:00.788Z,44.20
2023-03-08T17:01:50.173Z,43.88
2023-03-08T17:04:38.754Z,44.12
2023-03-08T17:07:27.636Z,44.10
2023-03-08T17:10:18.308Z,44.33
2023-03-08T17:13:07.102Z,44.14
2023-03-08T17:15:55.785Z,44.44
2023-03-08T17:18:44.759Z,45.70
2023-03-08T17:21:38.050Z,46.08
2023-03-08T17:24:27.944Z,46.16
2023-03-08T17:27:18.575Z,46.02
2023-03-08T17:30:10.165Z,45.19
2023-03-08T17:32:58.899Z,46.07
2023-03-08T17:35:47.596Z,46.34
2023-03-08T17:38:36.467Z,46.37
2023-03-08T17:41:25.449Z,46.75
2023-03-08T17:44:15.761Z,46.80
2023-03-08T17:47:04.520Z,46.60
2023-03-08T17:49:53.437Z,46.14
2023-03-08T17:52:42.388Z,46.42
2023-03-08T17:55:31.253Z,46.61
2023-03-08T17:58:20.583Z,46.34
2023-03-08T18:01:12.161Z,46.84
2023-03-08T18:04:01.428Z,46.46
2023-03-08T18:06:50.198Z,46.54
2023-03-08T18:09:38.862Z,46.41
2023-03-08T18:12:27.625Z,46.46
2023-03-08T18:15:16.262Z,47.03
2023-03-08T18:18:06.593Z,46.99
2023-03-08T18:21:01.328Z,46.91
2023-03-08T18:23:56.030Z,46.98
2023-03-08T18:26:44.662Z,46.34
2023-03-08T18:29:37.197Z,46.48
2023-03-08T18:32:27.983Z,46.76
2023-03-08T18:35:18.710Z,46.58
2023-03-08T18:38:07.381Z,46.44
2023-03-08T18:40:58.166Z,46.48
2023-03-08T18:43:46.951Z,46.58
2023-03-08T18:46:35.949Z,46.26
2023-03-08T18:49:24.740Z,46.14
2023-03-08T18:52:14.924Z,46.27
2023-03-08T18:55:04.004Z,46.27
2023-03-08T18:57:53.076Z,46.18
2023-03-08T19:00:41.675Z,46.12
2023-03-08T19:03:30.704Z,46.41
2023-03-08T19:06:19.693Z,46.50
2023-03-08T19:09:13.976Z,46.54
2023-03-08T19:12:03.385Z,46.45
2023-03-08T19:14:52.993Z,46.48
2023-03-08T19:17:41.768Z,46.81
2023-03-08T19:20:31.914Z,46.21
2023-03-08T19:23:20.799Z,46.70
2023-03-08T19:26:32.471Z,46.50
2023-03-08T19:29:22.564Z,46.48
2023-03-08T19:32:14.012Z,46.44
2023-03-08T19:35:04.421Z,46.80
2023-03-08T19:37:53.028Z,46.51
2023-03-08T19:40:45.171Z,46.16
2023-03-08T19:43:37.897Z,46.57
2023-03-08T19:46:26.661Z,46.24
2023-03-08T19:49:17.201Z,46.01
2023-03-08T19:52:07.728Z,46.06
2023-03-08T19:54:56.396Z,46.29
2023-03-08T19:57:45.086Z,46.36
2023-03-08T20:00:35.125Z,46.39
2023-03-08T20:03:23.786Z,46.63
2023-03-08T20:06:12.428Z,46.35
2023-03-08T20:09:03.691Z,46.34
2023-03-08T20:11:57.385Z,46.44
2023-03-08T20:14:46.966Z,46.46
2023-03-08T20:17:39.884Z,46.45
2023-03-08T20:20:28.646Z,46.58
2023-03-08T20:23:17.409Z,46.39
2023-03-08T20:26:06.315Z,46.56
2023-03-08T20:28:56.116Z,46.39
2023-03-08T20:31:48.018Z,46.93
2023-03-08T20:34:38.676Z,46.48
2023-03-08T20:37:27.412Z,46.33
2023-03-08T20:40:18.092Z,46.21
2023-03-08T20:43:10.858Z,46.72
2023-03-08T20:46:01.620Z,46.66
2023-03-08T20:48:50.757Z,46.61
2023-03-08T20:51:40.834Z,46.33
2023-03-08T20:54:29.459Z,46.42
2023-03-08T20:57:18.204Z,46.62
2023-03-08T21:00:09.493Z,46.74
2023-03-08T21:03:01.239Z,46.58
2023-03-08T21:05:50.007Z,46.45
2023-03-08T21:08:39.927Z,46.10
2023-03-08T21:11:28.830Z,46.45
2023-03-08T21:14:17.376Z,46.47
2023-03-08T21:17:05.936Z,46.26
2023-03-08T21:19:54.874Z,46.40
2023-03-08T21:22:43.444Z,46.57
2023-03-08T21:25:36.749Z,46.43
2023-03-08T21:28:25.590Z,46.56
2023-03-08T21:31:14.506Z,46.20
2023-03-08T21:34:03.843Z,46.53
2023-03-08T21:36:52.603Z,46.97
2023-03-08T21:39:41.200Z,46.93
2023-03-08T21:42:31.192Z,46.54
2023-03-08T21:45:19.845Z,46.26
2023-03-08T21:48:10.449Z,46.62
2023-03-08T21:50:59.042Z,46.41
2023-03-08T21:53:47.711Z,46.87
2023-03-08T21:56:36.413Z,47.38
2023-03-08T21:59:27.578Z,47.64
2023-03-08T22:02:16.212Z,47.71
2023-03-08T22:05:05.023Z,47.41
2023-03-08T22:07:53.586Z,47.71
2023-03-08T22:10:42.269Z,47.48
2023-03-08T22:13:30.820Z,47.28
2023-03-08T22:16:21.245Z,47.69
2023-03-08T22:19:11.731Z,47.88
2023-03-08T22:22:00.763Z,47.82
2023-03-08T22:24:49.405Z,47.52
2023-03-08T22:27:38.245Z,48.07
2023-03-08T22:30:26.854Z,47.71
2023-03-08T22:33:18.818Z,48.26
2023-03-08T22:36:08.622Z,48.75
2023-03-08T22:38:57.208Z,48.80
2023-03-08T22:41:45.859Z,48.87
2023-03-08T22:44:34.696Z,49.07
2023-03-08T22:47:23.822Z,48.93
2023-03-08T22:50:14.704Z,48.96
2023-03-08T22:53:03.340Z,49.54
2023-03-08T22:55:52.279Z,49.05
2023-03-08T22:58:40.915Z,49.37
2023-03-08T23:01:30.829Z,49.53
2023-03-08T23:04:20.179Z,49.45
2023-03-08T23:07:10.121Z,49.38
2023-03-08T23:09:59.018Z,48.97
2023-03-08T23:12:48.367Z,49.13
2023-03-08T23:15:37.149Z,49.32
2023-03-08T23:18:25.973Z,49.18
2023-03-08T23:21:16.107Z,49.55
2023-03-08T23:24:06.902Z,49.55
2023-03-08T23:27:01.653Z,49.57
2023-03-08T23:29:53.365Z,49.32
2023-03-08T23:32:42.617Z,49.39
2023-03-08T23:35:31.273Z,49.22
2023-03-08T23:38:19.861Z,49.13
2023-03-08T23:41:11.344Z,49.57
2023-03-08T23:44:01.921Z,49.48
2023-03-08T23:46:50.462Z,49.60
2023-03-08T23:49:39.127Z,49.88
2023-03-08T23:52:27.920Z,49.91
2023-03-08T23:55:16.526Z,49.95
2023-03-08T23:58:06.474Z,50.02
